Flinterbrise — PHCA — position and weather

sailwx.info

Track history (hours):
 
Tides and Currents Weather Stations Pressure Air Temp Water Temp Dewpoint Dewpoint Depression Visibility Wind Speed Wind Dir Waves Ship Positions

Flinterbrise

Last reported at 2015-Sep-04 20:19 UTC. Time now 2015-Sep-05 05:44 UTC.
Position N 56°28' E 010°04'.

Length 83 m; draft 5 m.

Type: Cargo ship. MMSI: 246044000.

Date/timePositionNaut miles runAvg speedWind from/ knotsBaromVisibWave heightAir tempDewpointWater temp
2015-Sep-04 20:19N 56°28' E 010°04'72 8.8
2015-Sep-04 12:09N 56°16' E 012°12'711.0
2015-Sep-04 11:33N 56°12' E 012°22'1111.0
2015-Sep-04 10:33N 56°05' E 012°37'1110.9
2015-Sep-04 09:33N 55°55' E 012°44'1111.0
2015-Sep-04 08:33N 55°44' E 012°42'1110.5
2015-Sep-04 07:33N 55°33' E 012°42'1111.0
2015-Sep-04 06:33N 55°22' E 012°41'1010.3
2015-Sep-04 05:33N 55°16' E 012°55'1111.1
2015-Sep-04 04:33N 55°15' E 013°14'2211.1
2015-Sep-04 02:33N 55°14' E 013°53'1111.1
2015-Sep-04 01:33N 55°14' E 014°13'1110.7
2015-Sep-04 00:33N 55°21' E 014°26'1111.1
2015-Sep-03 23:33N 55°29' E 014°40'1111.3
2015-Sep-03 22:33N 55°35' E 014°58'1111.4
2015-Sep-03 21:33N 55°40' E 015°15'11610.5
2015-Sep-03 10:31N 57°11' E 017°27'1111.0
2015-Sep-03 09:33N 57°21' E 017°34'  
Track history (hours):
 
Tides and Currents Weather Stations Pressure Air Temp Water Temp Dewpoint Dewpoint Depression Visibility Wind Speed Wind Dir Waves Ship Positions

Flinterbrise

Last reported at 2015-Sep-04 20:19 UTC. Time now 2015-Sep-05 05:44 UTC.
Position N 56°28' E 010°04'.

Length 83 m; draft 5 m.

Type: Cargo ship. MMSI: 246044000.

Date/timePositionNaut miles runAvg speedWind from/ knotsBaromVisibWave heightAir tempDewpointWater temp
2015-Sep-04 20:19N 56°28' E 010°04'72 8.8
2015-Sep-04 12:09N 56°16' E 012°12'711.0
2015-Sep-04 11:33N 56°12' E 012°22'1111.0
2015-Sep-04 10:33N 56°05' E 012°37'1110.9
2015-Sep-04 09:33N 55°55' E 012°44'1111.0
2015-Sep-04 08:33N 55°44' E 012°42'1110.5
2015-Sep-04 07:33N 55°33' E 012°42'1111.0
2015-Sep-04 06:33N 55°22' E 012°41'1010.3
2015-Sep-04 05:33N 55°16' E 012°55'1111.1
2015-Sep-04 04:33N 55°15' E 013°14'2211.1
2015-Sep-04 02:33N 55°14' E 013°53'1111.1
2015-Sep-04 01:33N 55°14' E 014°13'1110.7
2015-Sep-04 00:33N 55°21' E 014°26'1111.1
2015-Sep-03 23:33N 55°29' E 014°40'1111.3
2015-Sep-03 22:33N 55°35' E 014°58'1111.4
2015-Sep-03 21:33N 55°40' E 015°15'11610.5
2015-Sep-03 10:31N 57°11' E 017°27'1111.0
2015-Sep-03 09:33N 57°21' E 017°34'  

Dump ship's entire track history